sensor_id;sensor_type;location;lat;lon;timestamp;P1;durP1;ratioP1;P2;durP2;ratioP2
41687;SDS011;27371;42.686;23.362;2022-09-20T00:03:05;0.90;;;0.50;;
41687;SDS011;27371;42.686;23.362;2022-09-20T00:05:32;0.60;;;0.40;;
41687;SDS011;27371;42.686;23.362;2022-09-20T00:07:57;1.10;;;0.60;;
41687;SDS011;27371;42.686;23.362;2022-09-20T00:10:22;0.40;;;0.40;;
41687;SDS011;27371;42.686;23.362;2022-09-20T00:12:48;1.08;;;0.70;;
41687;SDS011;27371;42.686;23.362;2022-09-20T00:15:13;0.60;;;0.50;;
41687;SDS011;27371;42.686;23.362;2022-09-20T00:17:39;3.15;;;0.60;;
41687;SDS011;27371;42.686;23.362;2022-09-20T00:20:04;0.68;;;0.50;;
41687;SDS011;27371;42.686;23.362;2022-09-20T00:22:29;1.52;;;0.60;;
41687;SDS011;27371;42.686;23.362;2022-09-20T00:24:55;0.60;;;0.40;;
41687;SDS011;27371;42.686;23.362;2022-09-20T00:27:20;0.50;;;0.50;;
41687;SDS011;27371;42.686;23.362;2022-09-20T00:29:45;0.50;;;0.40;;
41687;SDS011;27371;42.686;23.362;2022-09-20T00:32:11;0.80;;;0.55;;
41687;SDS011;27371;42.686;23.362;2022-09-20T00:34:36;3.53;;;0.40;;
41687;SDS011;27371;42.686;23.362;2022-09-20T00:37:20;0.73;;;0.60;;
41687;SDS011;27371;42.686;23.362;2022-09-20T00:39:45;0.88;;;0.38;;
41687;SDS011;27371;42.686;23.362;2022-09-20T00:42:12;0.90;;;0.60;;
41687;SDS011;27371;42.686;23.362;2022-09-20T00:49:40;1.10;;;0.40;;
41687;SDS011;27371;42.686;23.362;2022-09-20T00:52:05;0.73;;;0.40;;
41687;SDS011;27371;42.686;23.362;2022-09-20T00:54:31;0.63;;;0.40;;
41687;SDS011;27371;42.686;23.362;2022-09-20T00:56:57;0.50;;;0.40;;
41687;SDS011;27371;42.686;23.362;2022-09-20T00:59:30;0.73;;;0.52;;
41687;SDS011;27371;42.686;23.362;2022-09-20T01:01:57;0.40;;;0.30;;
41687;SDS011;27371;42.686;23.362;2022-09-20T01:04:26;0.68;;;0.50;;
41687;SDS011;27371;42.686;23.362;2022-09-20T01:06:53;1.65;;;0.43;;
41687;SDS011;27371;42.686;23.362;2022-09-20T01:09:19;1.17;;;0.50;;
41687;SDS011;27371;42.686;23.362;2022-09-20T01:11:45;1.30;;;0.50;;
41687;SDS011;27371;42.686;23.362;2022-09-20T01:14:12;1.10;;;0.40;;
41687;SDS011;27371;42.686;23.362;2022-09-20T01:16:37;0.80;;;0.40;;
41687;SDS011;27371;42.686;23.362;2022-09-20T01:19:05;0.73;;;0.50;;
41687;SDS011;27371;42.686;23.362;2022-09-20T01:21:34;0.95;;;0.50;;
41687;SDS011;27371;42.686;23.362;2022-09-20T01:24:04;1.17;;;0.50;;
41687;SDS011;27371;42.686;23.362;2022-09-20T01:26:36;0.50;;;0.40;;
41687;SDS011;27371;42.686;23.362;2022-09-20T01:31:49;0.60;;;0.50;;
41687;SDS011;27371;42.686;23.362;2022-09-20T01:34:49;0.73;;;0.50;;
41687;SDS011;27371;42.686;23.362;2022-09-20T01:37:13;0.80;;;0.50;;
41687;SDS011;27371;42.686;23.362;2022-09-20T01:42:09;0.68;;;0.57;;
41687;SDS011;27371;42.686;23.362;2022-09-20T01:44:47;0.60;;;0.47;;
41687;SDS011;27371;42.686;23.362;2022-09-20T01:47:30;0.77;;;0.50;;
41687;SDS011;27371;42.686;23.362;2022-09-20T01:50:08;0.80;;;0.50;;
41687;SDS011;27371;42.686;23.362;2022-09-20T01:52:44;0.63;;;0.55;;
41687;SDS011;27371;42.686;23.362;2022-09-20T02:00:20;1.48;;;0.70;;
41687;SDS011;27371;42.686;23.362;2022-09-20T02:10:37;1.52;;;1.00;;
41687;SDS011;27371;42.686;23.362;2022-09-20T02:13:39;0.60;;;0.60;;
41687;SDS011;27371;42.686;23.362;2022-09-20T02:18:42;0.60;;;0.52;;
41687;SDS011;27371;42.686;23.362;2022-09-20T02:29:32;1.13;;;0.70;;
41687;SDS011;27371;42.686;23.362;2022-09-20T02:32:04;1.70;;;0.80;;
41687;SDS011;27371;42.686;23.362;2022-09-20T02:37:21;0.70;;;0.55;;
41687;SDS011;27371;42.686;23.362;2022-09-20T02:45:27;1.55;;;0.95;;
41687;SDS011;27371;42.686;23.362;2022-09-20T02:47:55;1.27;;;0.80;;
41687;SDS011;27371;42.686;23.362;2022-09-20T03:00:43;1.15;;;0.93;;
41687;SDS011;27371;42.686;23.362;2022-09-20T03:03:14;2.28;;;1.00;;
41687;SDS011;27371;42.686;23.362;2022-09-20T03:31:57;1.67;;;1.20;;
41687;SDS011;27371;42.686;23.362;2022-09-20T03:37:04;1.50;;;1.23;;
41687;SDS011;27371;42.686;23.362;2022-09-20T03:42:17;2.03;;;1.17;;
41687;SDS011;27371;42.686;23.362;2022-09-20T03:50:09;1.95;;;1.20;;
41687;SDS011;27371;42.686;23.362;2022-09-20T03:57:53;3.80;;;1.00;;
41687;SDS011;27371;42.686;23.362;2022-09-20T04:05:33;1.45;;;1.00;;
41687;SDS011;27371;42.686;23.362;2022-09-20T04:26:32;2.33;;;1.33;;
41687;SDS011;27371;42.686;23.362;2022-09-20T04:33:59;3.92;;;1.40;;
41687;SDS011;27371;42.686;23.362;2022-09-20T04:44:22;3.85;;;1.42;;
41687;SDS011;27371;42.686;23.362;2022-09-20T05:02:07;2.47;;;1.23;;
41687;SDS011;27371;42.686;23.362;2022-09-20T05:07:35;2.40;;;1.35;;
41687;SDS011;27371;42.686;23.362;2022-09-20T05:18:01;3.88;;;1.38;;
41687;SDS011;27371;42.686;23.362;2022-09-20T05:23:12;2.45;;;1.00;;
41687;SDS011;27371;42.686;23.362;2022-09-20T05:25:50;2.92;;;0.93;;
41687;SDS011;27371;42.686;23.362;2022-09-20T05:28:32;1.27;;;1.08;;
41687;SDS011;27371;42.686;23.362;2022-09-20T05:31:04;2.83;;;1.17;;
41687;SDS011;27371;42.686;23.362;2022-09-20T05:33:50;3.75;;;1.30;;
41687;SDS011;27371;42.686;23.362;2022-09-20T05:49:24;2.58;;;1.23;;
41687;SDS011;27371;42.686;23.362;2022-09-20T05:57:17;9.35;;;2.83;;
41687;SDS011;27371;42.686;23.362;2022-09-20T06:02:17;5.63;;;1.80;;
41687;SDS011;27371;42.686;23.362;2022-09-20T06:17:43;2.10;;;1.08;;
41687;SDS011;27371;42.686;23.362;2022-09-20T06:22:54;2.10;;;0.77;;
41687;SDS011;27371;42.686;23.362;2022-09-20T06:25:29;1.98;;;0.90;;
41687;SDS011;27371;42.686;23.362;2022-09-20T06:30:41;2.92;;;0.93;;
41687;SDS011;27371;42.686;23.362;2022-09-20T06:35:37;1.42;;;0.73;;
41687;SDS011;27371;42.686;23.362;2022-09-20T06:41:08;3.22;;;0.85;;
41687;SDS011;27371;42.686;23.362;2022-09-20T06:43:53;5.60;;;0.82;;
41687;SDS011;27371;42.686;23.362;2022-09-20T06:46:21;2.85;;;1.10;;
41687;SDS011;27371;42.686;23.362;2022-09-20T06:48:47;4.38;;;0.82;;
41687;SDS011;27371;42.686;23.362;2022-09-20T06:51:14;1.60;;;0.80;;
41687;SDS011;27371;42.686;23.362;2022-09-20T06:53:39;2.97;;;0.90;;
41687;SDS011;27371;42.686;23.362;2022-09-20T06:56:06;1.67;;;1.10;;
41687;SDS011;27371;42.686;23.362;2022-09-20T06:58:32;2.15;;;0.73;;
41687;SDS011;27371;42.686;23.362;2022-09-20T07:00:57;3.10;;;0.80;;
41687;SDS011;27371;42.686;23.362;2022-09-20T07:03:23;7.60;;;4.78;;
41687;SDS011;27371;42.686;23.362;2022-09-20T07:05:48;3.00;;;2.20;;
41687;SDS011;27371;42.686;23.362;2022-09-20T07:08:14;4.75;;;3.28;;
41687;SDS011;27371;42.686;23.362;2022-09-20T07:10:40;3.50;;;2.08;;
41687;SDS011;27371;42.686;23.362;2022-09-20T07:13:05;7.25;;;2.03;;
41687;SDS011;27371;42.686;23.362;2022-09-20T07:15:31;2.22;;;1.52;;
41687;SDS011;27371;42.686;23.362;2022-09-20T07:17:56;3.90;;;1.98;;
41687;SDS011;27371;42.686;23.362;2022-09-20T07:20:23;3.92;;;2.35;;
41687;SDS011;27371;42.686;23.362;2022-09-20T07:22:48;4.57;;;1.05;;
41687;SDS011;27371;42.686;23.362;2022-09-20T07:25:14;6.60;;;2.70;;
41687;SDS011;27371;42.686;23.362;2022-09-20T07:27:39;5.18;;;1.33;;
41687;SDS011;27371;42.686;23.362;2022-09-20T07:30:05;2.80;;;1.20;;
41687;SDS011;27371;42.686;23.362;2022-09-20T07:32:30;5.53;;;0.90;;
41687;SDS011;27371;42.686;23.362;2022-09-20T07:34:56;5.97;;;0.73;;
41687;SDS011;27371;42.686;23.362;2022-09-20T07:37:21;2.42;;;0.80;;
41687;SDS011;27371;42.686;23.362;2022-09-20T07:39:46;2.25;;;0.82;;
41687;SDS011;27371;42.686;23.362;2022-09-20T07:42:12;1.27;;;0.82;;
41687;SDS011;27371;42.686;23.362;2022-09-20T07:44:38;2.90;;;0.80;;
41687;SDS011;27371;42.686;23.362;2022-09-20T07:47:07;3.72;;;1.20;;
41687;SDS011;27371;42.686;23.362;2022-09-20T07:49:38;4.68;;;1.30;;
41687;SDS011;27371;42.686;23.362;2022-09-20T07:52:04;4.90;;;1.70;;
41687;SDS011;27371;42.686;23.362;2022-09-20T07:54:29;3.20;;;0.98;;
41687;SDS011;27371;42.686;23.362;2022-09-20T07:56:54;2.47;;;0.80;;
41687;SDS011;27371;42.686;23.362;2022-09-20T07:59:20;3.83;;;1.50;;
41687;SDS011;27371;42.686;23.362;2022-09-20T08:01:45;3.53;;;0.65;;
41687;SDS011;27371;42.686;23.362;2022-09-20T08:04:10;3.42;;;0.70;;
41687;SDS011;27371;42.686;23.362;2022-09-20T08:06:40;1.52;;;0.90;;
41687;SDS011;27371;42.686;23.362;2022-09-20T08:09:06;2.65;;;1.23;;
41687;SDS011;27371;42.686;23.362;2022-09-20T08:11:32;3.88;;;0.90;;
41687;SDS011;27371;42.686;23.362;2022-09-20T08:13:58;1.27;;;0.60;;
41687;SDS011;27371;42.686;23.362;2022-09-20T08:16:24;1.25;;;0.55;;
41687;SDS011;27371;42.686;23.362;2022-09-20T08:18:54;2.45;;;0.60;;
41687;SDS011;27371;42.686;23.362;2022-09-20T08:21:21;2.03;;;0.50;;
41687;SDS011;27371;42.686;23.362;2022-09-20T08:23:46;1.67;;;0.70;;
41687;SDS011;27371;42.686;23.362;2022-09-20T08:26:13;1.65;;;0.75;;
41687;SDS011;27371;42.686;23.362;2022-09-20T08:28:39;2.83;;;0.60;;
41687;SDS011;27371;42.686;23.362;2022-09-20T08:31:06;2.70;;;0.70;;
41687;SDS011;27371;42.686;23.362;2022-09-20T08:33:32;2.67;;;0.40;;
41687;SDS011;27371;42.686;23.362;2022-09-20T08:35:57;1.05;;;0.50;;
41687;SDS011;27371;42.686;23.362;2022-09-20T08:38:23;1.02;;;0.50;;
41687;SDS011;27371;42.686;23.362;2022-09-20T08:40:55;2.10;;;0.50;;
41687;SDS011;27371;42.686;23.362;2022-09-20T08:43:22;1.25;;;0.60;;
41687;SDS011;27371;42.686;23.362;2022-09-20T08:45:49;1.08;;;0.40;;
41687;SDS011;27371;42.686;23.362;2022-09-20T08:48:15;1.30;;;0.43;;
41687;SDS011;27371;42.686;23.362;2022-09-20T08:50:43;2.88;;;0.50;;
41687;SDS011;27371;42.686;23.362;2022-09-20T08:53:10;1.38;;;0.40;;
41687;SDS011;27371;42.686;23.362;2022-09-20T08:55:36;1.02;;;0.52;;
41687;SDS011;27371;42.686;23.362;2022-09-20T08:58:07;1.92;;;0.65;;
41687;SDS011;27371;42.686;23.362;2022-09-20T09:00:33;3.08;;;0.40;;
41687;SDS011;27371;42.686;23.362;2022-09-20T09:03:03;1.58;;;0.60;;
41687;SDS011;27371;42.686;23.362;2022-09-20T09:05:36;2.20;;;1.35;;
41687;SDS011;27371;42.686;23.362;2022-09-20T09:08:12;1.60;;;0.50;;
41687;SDS011;27371;42.686;23.362;2022-09-20T09:10:40;1.45;;;0.30;;
41687;SDS011;27371;42.686;23.362;2022-09-20T09:15:38;0.63;;;0.30;;
41687;SDS011;27371;42.686;23.362;2022-09-20T09:18:04;2.63;;;0.57;;
41687;SDS011;27371;42.686;23.362;2022-09-20T09:20:29;0.73;;;0.50;;
41687;SDS011;27371;42.686;23.362;2022-09-20T09:23:05;3.07;;;0.70;;
41687;SDS011;27371;42.686;23.362;2022-09-20T09:25:36;0.95;;;0.45;;
41687;SDS011;27371;42.686;23.362;2022-09-20T09:28:13;2.75;;;0.57;;
41687;SDS011;27371;42.686;23.362;2022-09-20T09:30:41;0.93;;;0.40;;
41687;SDS011;27371;42.686;23.362;2022-09-20T09:35:38;0.93;;;0.17;;
41687;SDS011;27371;42.686;23.362;2022-09-20T09:38:04;0.30;;;0.28;;
41687;SDS011;27371;42.686;23.362;2022-09-20T09:43:02;0.90;;;0.47;;
41687;SDS011;27371;42.686;23.362;2022-09-20T09:45:31;1.65;;;0.80;;
41687;SDS011;27371;42.686;23.362;2022-09-20T09:48:01;0.93;;;0.38;;
41687;SDS011;27371;42.686;23.362;2022-09-20T09:50:29;1.90;;;0.45;;
41687;SDS011;27371;42.686;23.362;2022-09-20T09:53:28;1.40;;;0.50;;
41687;SDS011;27371;42.686;23.362;2022-09-20T10:01:29;4.00;;;1.08;;
41687;SDS011;27371;42.686;23.362;2022-09-20T10:04:19;1.23;;;0.50;;
41687;SDS011;27371;42.686;23.362;2022-09-20T10:06:54;4.55;;;0.60;;
41687;SDS011;27371;42.686;23.362;2022-09-20T10:09:40;6.07;;;1.83;;
41687;SDS011;27371;42.686;23.362;2022-09-20T10:17:20;5.03;;;0.47;;
41687;SDS011;27371;42.686;23.362;2022-09-20T10:28:06;1.45;;;0.82;;
41687;SDS011;27371;42.686;23.362;2022-09-20T10:30:39;1.67;;;0.57;;
41687;SDS011;27371;42.686;23.362;2022-09-20T10:35:48;0.95;;;0.40;;
41687;SDS011;27371;42.686;23.362;2022-09-20T10:38:59;4.80;;;1.15;;
41687;SDS011;27371;42.686;23.362;2022-09-20T10:44:09;4.38;;;0.80;;
41687;SDS011;27371;42.686;23.362;2022-09-20T10:49:38;8.95;;;3.50;;
41687;SDS011;27371;42.686;23.362;2022-09-20T11:03:16;2.92;;;0.50;;
41687;SDS011;27371;42.686;23.362;2022-09-20T11:08:10;1.88;;;0.43;;
41687;SDS011;27371;42.686;23.362;2022-09-20T11:10:51;0.50;;;0.40;;
41687;SDS011;27371;42.686;23.362;2022-09-20T11:19:45;0.43;;;0.40;;
41687;SDS011;27371;42.686;23.362;2022-09-20T11:21:54;1.75;;;0.70;;
41687;SDS011;27371;42.686;23.362;2022-09-20T11:26:49;1.85;;;0.60;;
41687;SDS011;27371;42.686;23.362;2022-09-20T11:32:14;0.73;;;0.30;;
41687;SDS011;27371;42.686;23.362;2022-09-20T11:34:51;2.67;;;0.38;;
41687;SDS011;27371;42.686;23.362;2022-09-20T11:37:19;1.52;;;0.73;;
41687;SDS011;27371;42.686;23.362;2022-09-20T11:39:48;3.53;;;1.58;;
41687;SDS011;27371;42.686;23.362;2022-09-20T11:42:16;0.60;;;0.40;;
41687;SDS011;27371;42.686;23.362;2022-09-20T11:44:43;2.05;;;0.98;;
41687;SDS011;27371;42.686;23.362;2022-09-20T11:47:13;1.73;;;0.45;;
41687;SDS011;27371;42.686;23.362;2022-09-20T11:57:13;1.05;;;0.63;;
41687;SDS011;27371;42.686;23.362;2022-09-20T11:59:40;0.88;;;0.63;;
41687;SDS011;27371;42.686;23.362;2022-09-20T12:04:42;2.85;;;0.55;;
41687;SDS011;27371;42.686;23.362;2022-09-20T12:07:15;3.70;;;0.75;;
41687;SDS011;27371;42.686;23.362;2022-09-20T12:09:42;3.05;;;0.80;;
41687;SDS011;27371;42.686;23.362;2022-09-20T12:12:13;4.97;;;1.10;;
41687;SDS011;27371;42.686;23.362;2022-09-20T12:14:39;2.58;;;1.02;;
41687;SDS011;27371;42.686;23.362;2022-09-20T12:17:04;1.58;;;0.40;;
41687;SDS011;27371;42.686;23.362;2022-09-20T12:26:50;1.58;;;1.20;;
41687;SDS011;27371;42.686;23.362;2022-09-20T12:32:28;1.80;;;0.82;;
41687;SDS011;27371;42.686;23.362;2022-09-20T12:34:51;4.82;;;1.75;;
41687;SDS011;27371;42.686;23.362;2022-09-20T12:37:16;2.70;;;0.90;;
41687;SDS011;27371;42.686;23.362;2022-09-20T12:39:52;0.90;;;0.40;;
41687;SDS011;27371;42.686;23.362;2022-09-20T12:42:29;2.33;;;0.50;;
41687;SDS011;27371;42.686;23.362;2022-09-20T12:47:22;1.55;;;0.50;;
41687;SDS011;27371;42.686;23.362;2022-09-20T12:49:49;3.28;;;0.38;;
41687;SDS011;27371;42.686;23.362;2022-09-20T13:03:30;0.50;;;0.30;;
41687;SDS011;27371;42.686;23.362;2022-09-20T13:08:53;1.25;;;0.40;;
41687;SDS011;27371;42.686;23.362;2022-09-20T13:13:46;2.35;;;0.30;;
41687;SDS011;27371;42.686;23.362;2022-09-20T13:16:25;1.10;;;0.38;;
41687;SDS011;27371;42.686;23.362;2022-09-20T13:19:04;1.42;;;0.50;;
41687;SDS011;27371;42.686;23.362;2022-09-20T13:21:35;1.58;;;0.40;;
41687;SDS011;27371;42.686;23.362;2022-09-20T13:24:01;0.50;;;0.20;;
41687;SDS011;27371;42.686;23.362;2022-09-20T13:26:48;1.95;;;1.05;;
41687;SDS011;27371;42.686;23.362;2022-09-20T13:29:29;0.98;;;0.50;;
41687;SDS011;27371;42.686;23.362;2022-09-20T13:32:13;2.65;;;0.43;;
41687;SDS011;27371;42.686;23.362;2022-09-20T13:34:38;1.52;;;0.70;;
41687;SDS011;27371;42.686;23.362;2022-09-20T13:37:03;2.20;;;1.00;;
41687;SDS011;27371;42.686;23.362;2022-09-20T13:39:30;1.00;;;0.70;;
41687;SDS011;27371;42.686;23.362;2022-09-20T13:41:59;1.95;;;0.60;;
41687;SDS011;27371;42.686;23.362;2022-09-20T13:44:26;2.42;;;0.65;;
41687;SDS011;27371;42.686;23.362;2022-09-20T13:46:54;0.60;;;0.50;;
41687;SDS011;27371;42.686;23.362;2022-09-20T13:49:19;1.05;;;0.40;;
41687;SDS011;27371;42.686;23.362;2022-09-20T13:51:47;0.73;;;0.40;;
41687;SDS011;27371;42.686;23.362;2022-09-20T13:54:23;0.52;;;0.40;;
41687;SDS011;27371;42.686;23.362;2022-09-20T13:56:50;2.50;;;0.40;;
41687;SDS011;27371;42.686;23.362;2022-09-20T13:59:16;4.50;;;0.50;;
41687;SDS011;27371;42.686;23.362;2022-09-20T14:01:47;0.68;;;0.30;;
41687;SDS011;27371;42.686;23.362;2022-09-20T14:04:17;0.60;;;0.40;;
41687;SDS011;27371;42.686;23.362;2022-09-20T14:06:44;1.25;;;0.50;;
41687;SDS011;27371;42.686;23.362;2022-09-20T14:09:15;1.60;;;0.50;;
41687;SDS011;27371;42.686;23.362;2022-09-20T14:11:43;0.68;;;0.30;;
41687;SDS011;27371;42.686;23.362;2022-09-20T14:14:09;1.42;;;0.60;;
41687;SDS011;27371;42.686;23.362;2022-09-20T14:16:37;0.88;;;0.40;;
41687;SDS011;27371;42.686;23.362;2022-09-20T14:19:04;2.67;;;0.50;;
41687;SDS011;27371;42.686;23.362;2022-09-20T14:21:32;0.45;;;0.40;;
41687;SDS011;27371;42.686;23.362;2022-09-20T14:26:59;1.08;;;0.38;;
41687;SDS011;27371;42.686;23.362;2022-09-20T14:29:38;1.85;;;0.40;;
41687;SDS011;27371;42.686;23.362;2022-09-20T14:32:49;1.98;;;0.40;;
41687;SDS011;27371;42.686;23.362;2022-09-20T14:40:15;0.60;;;0.35;;
41687;SDS011;27371;42.686;23.362;2022-09-20T14:42:43;2.97;;;0.40;;
41687;SDS011;27371;42.686;23.362;2022-09-20T14:45:26;2.22;;;0.40;;
41687;SDS011;27371;42.686;23.362;2022-09-20T14:47:54;2.58;;;0.35;;
41687;SDS011;27371;42.686;23.362;2022-09-20T14:50:24;0.90;;;0.50;;
41687;SDS011;27371;42.686;23.362;2022-09-20T14:53:01;5.78;;;0.50;;
41687;SDS011;27371;42.686;23.362;2022-09-20T14:55:27;0.90;;;0.40;;
41687;SDS011;27371;42.686;23.362;2022-09-20T14:57:56;1.50;;;0.50;;
41687;SDS011;27371;42.686;23.362;2022-09-20T15:00:22;2.63;;;0.40;;
41687;SDS011;27371;42.686;23.362;2022-09-20T15:02:47;3.90;;;0.43;;
41687;SDS011;27371;42.686;23.362;2022-09-20T15:05:23;3.33;;;0.43;;
41687;SDS011;27371;42.686;23.362;2022-09-20T15:07:52;3.38;;;0.60;;
41687;SDS011;27371;42.686;23.362;2022-09-20T15:10:18;1.08;;;0.50;;
41687;SDS011;27371;42.686;23.362;2022-09-20T15:12:43;1.98;;;0.60;;
41687;SDS011;27371;42.686;23.362;2022-09-20T15:15:13;7.47;;;0.80;;
41687;SDS011;27371;42.686;23.362;2022-09-20T15:17:39;3.58;;;0.70;;
41687;SDS011;27371;42.686;23.362;2022-09-20T15:20:04;1.10;;;0.80;;
41687;SDS011;27371;42.686;23.362;2022-09-20T15:22:30;1.75;;;0.40;;
41687;SDS011;27371;42.686;23.362;2022-09-20T15:24:56;2.70;;;0.50;;
41687;SDS011;27371;42.686;23.362;2022-09-20T15:27:22;1.70;;;0.50;;
41687;SDS011;27371;42.686;23.362;2022-09-20T15:29:47;1.92;;;0.45;;
41687;SDS011;27371;42.686;23.362;2022-09-20T15:32:12;0.80;;;0.52;;
41687;SDS011;27371;42.686;23.362;2022-09-20T15:34:38;4.28;;;0.50;;
41687;SDS011;27371;42.686;23.362;2022-09-20T15:37:03;2.22;;;0.70;;
41687;SDS011;27371;42.686;23.362;2022-09-20T15:39:29;2.80;;;0.60;;
41687;SDS011;27371;42.686;23.362;2022-09-20T15:41:54;1.65;;;0.63;;
41687;SDS011;27371;42.686;23.362;2022-09-20T15:44:19;4.10;;;0.80;;
41687;SDS011;27371;42.686;23.362;2022-09-20T15:46:45;7.95;;;1.08;;
41687;SDS011;27371;42.686;23.362;2022-09-20T15:49:12;2.63;;;1.10;;
41687;SDS011;27371;42.686;23.362;2022-09-20T15:51:37;2.88;;;0.98;;
41687;SDS011;27371;42.686;23.362;2022-09-20T15:54:03;0.90;;;0.52;;
41687;SDS011;27371;42.686;23.362;2022-09-20T15:56:36;2.75;;;0.85;;
41687;SDS011;27371;42.686;23.362;2022-09-20T15:59:05;3.00;;;1.13;;
41687;SDS011;27371;42.686;23.362;2022-09-20T16:01:35;3.47;;;0.70;;
41687;SDS011;27371;42.686;23.362;2022-09-20T16:04:05;5.97;;;2.53;;
41687;SDS011;27371;42.686;23.362;2022-09-20T16:06:32;3.83;;;1.98;;
41687;SDS011;27371;42.686;23.362;2022-09-20T16:08:57;3.47;;;1.20;;
41687;SDS011;27371;42.686;23.362;2022-09-20T16:11:22;2.95;;;1.05;;
41687;SDS011;27371;42.686;23.362;2022-09-20T16:13:55;8.32;;;2.70;;
41687;SDS011;27371;42.686;23.362;2022-09-20T16:16:22;3.38;;;1.42;;
41687;SDS011;27371;42.686;23.362;2022-09-20T16:18:47;2.55;;;1.00;;
41687;SDS011;27371;42.686;23.362;2022-09-20T16:21:31;3.60;;;1.00;;
41687;SDS011;27371;42.686;23.362;2022-09-20T16:23:57;2.92;;;1.10;;
41687;SDS011;27371;42.686;23.362;2022-09-20T16:26:23;2.15;;;1.20;;
41687;SDS011;27371;42.686;23.362;2022-09-20T16:28:49;3.97;;;1.33;;
41687;SDS011;27371;42.686;23.362;2022-09-20T16:31:34;3.50;;;1.42;;
41687;SDS011;27371;42.686;23.362;2022-09-20T16:34:05;12.32;;;1.55;;
41687;SDS011;27371;42.686;23.362;2022-09-20T16:36:31;3.95;;;1.60;;
41687;SDS011;27371;42.686;23.362;2022-09-20T16:38:56;8.90;;;5.60;;
41687;SDS011;27371;42.686;23.362;2022-09-20T16:41:23;5.20;;;2.88;;
41687;SDS011;27371;42.686;23.362;2022-09-20T16:43:49;4.03;;;2.05;;
41687;SDS011;27371;42.686;23.362;2022-09-20T16:46:15;6.57;;;2.20;;
41687;SDS011;27371;42.686;23.362;2022-09-20T16:48:41;4.60;;;2.03;;
41687;SDS011;27371;42.686;23.362;2022-09-20T16:51:08;4.28;;;1.77;;
41687;SDS011;27371;42.686;23.362;2022-09-20T16:53:33;7.30;;;2.72;;
41687;SDS011;27371;42.686;23.362;2022-09-20T16:55:59;5.40;;;2.45;;
41687;SDS011;27371;42.686;23.362;2022-09-20T16:58:28;7.03;;;2.30;;
41687;SDS011;27371;42.686;23.362;2022-09-20T17:01:06;5.35;;;2.22;;
41687;SDS011;27371;42.686;23.362;2022-09-20T17:03:32;5.65;;;2.30;;
41687;SDS011;27371;42.686;23.362;2022-09-20T17:06:04;7.57;;;3.20;;
41687;SDS011;27371;42.686;23.362;2022-09-20T17:08:30;11.95;;;8.82;;
41687;SDS011;27371;42.686;23.362;2022-09-20T17:10:59;6.90;;;2.67;;
41687;SDS011;27371;42.686;23.362;2022-09-20T17:13:25;7.03;;;2.50;;
41687;SDS011;27371;42.686;23.362;2022-09-20T17:16:04;9.95;;;3.28;;
41687;SDS011;27371;42.686;23.362;2022-09-20T17:18:30;6.47;;;2.85;;
41687;SDS011;27371;42.686;23.362;2022-09-20T17:21:01;6.18;;;2.60;;
41687;SDS011;27371;42.686;23.362;2022-09-20T17:23:26;5.60;;;1.98;;
41687;SDS011;27371;42.686;23.362;2022-09-20T17:25:59;4.95;;;2.03;;
41687;SDS011;27371;42.686;23.362;2022-09-20T17:28:25;10.18;;;2.83;;
41687;SDS011;27371;42.686;23.362;2022-09-20T17:30:50;8.25;;;2.63;;
41687;SDS011;27371;42.686;23.362;2022-09-20T17:33:15;5.07;;;2.90;;
41687;SDS011;27371;42.686;23.362;2022-09-20T17:35:49;5.45;;;2.75;;
41687;SDS011;27371;42.686;23.362;2022-09-20T17:38:14;4.20;;;2.60;;
41687;SDS011;27371;42.686;23.362;2022-09-20T17:40:39;6.93;;;4.05;;
41687;SDS011;27371;42.686;23.362;2022-09-20T17:43:04;5.93;;;2.50;;
41687;SDS011;27371;42.686;23.362;2022-09-20T17:45:31;3.65;;;1.90;;
41687;SDS011;27371;42.686;23.362;2022-09-20T17:47:57;4.72;;;1.90;;
41687;SDS011;27371;42.686;23.362;2022-09-20T17:50:22;3.33;;;1.95;;
41687;SDS011;27371;42.686;23.362;2022-09-20T17:52:48;3.50;;;2.30;;
41687;SDS011;27371;42.686;23.362;2022-09-20T17:55:13;5.97;;;2.08;;
41687;SDS011;27371;42.686;23.362;2022-09-20T17:57:40;2.90;;;1.75;;
41687;SDS011;27371;42.686;23.362;2022-09-20T18:00:05;5.97;;;2.03;;
41687;SDS011;27371;42.686;23.362;2022-09-20T18:02:30;3.30;;;2.15;;
41687;SDS011;27371;42.686;23.362;2022-09-20T18:04:56;3.75;;;2.22;;
41687;SDS011;27371;42.686;23.362;2022-09-20T18:07:21;7.82;;;2.10;;
41687;SDS011;27371;42.686;23.362;2022-09-20T18:09:47;4.13;;;2.22;;
41687;SDS011;27371;42.686;23.362;2022-09-20T18:12:12;5.72;;;2.10;;
41687;SDS011;27371;42.686;23.362;2022-09-20T18:14:38;4.10;;;2.60;;
41687;SDS011;27371;42.686;23.362;2022-09-20T18:17:03;8.20;;;2.17;;
41687;SDS011;27371;42.686;23.362;2022-09-20T18:19:29;6.95;;;2.05;;
41687;SDS011;27371;42.686;23.362;2022-09-20T18:21:58;6.30;;;2.10;;
41687;SDS011;27371;42.686;23.362;2022-09-20T18:24:24;7.13;;;2.45;;
41687;SDS011;27371;42.686;23.362;2022-09-20T18:26:50;4.47;;;2.03;;
41687;SDS011;27371;42.686;23.362;2022-09-20T18:29:15;8.00;;;2.70;;
41687;SDS011;27371;42.686;23.362;2022-09-20T18:34:15;3.15;;;2.05;;
41687;SDS011;27371;42.686;23.362;2022-09-20T18:36:42;8.98;;;4.25;;
41687;SDS011;27371;42.686;23.362;2022-09-20T18:39:07;7.43;;;3.13;;
41687;SDS011;27371;42.686;23.362;2022-09-20T18:41:33;5.15;;;3.40;;
41687;SDS011;27371;42.686;23.362;2022-09-20T18:44:00;7.82;;;3.92;;
41687;SDS011;27371;42.686;23.362;2022-09-20T18:46:26;10.13;;;3.90;;
41687;SDS011;27371;42.686;23.362;2022-09-20T18:48:58;11.77;;;4.28;;
41687;SDS011;27371;42.686;23.362;2022-09-20T18:51:25;8.25;;;3.15;;
41687;SDS011;27371;42.686;23.362;2022-09-20T18:53:53;6.22;;;3.03;;
41687;SDS011;27371;42.686;23.362;2022-09-20T18:56:25;7.70;;;2.22;;
41687;SDS011;27371;42.686;23.362;2022-09-20T19:11:59;9.15;;;2.40;;
41687;SDS011;27371;42.686;23.362;2022-09-20T19:16:53;4.50;;;2.67;;
41687;SDS011;27371;42.686;23.362;2022-09-20T19:24:31;5.88;;;3.30;;
41687;SDS011;27371;42.686;23.362;2022-09-20T19:26:59;6.55;;;3.60;;
41687;SDS011;27371;42.686;23.362;2022-09-20T19:29:26;6.07;;;3.67;;
41687;SDS011;27371;42.686;23.362;2022-09-20T19:31:54;5.25;;;3.67;;
41687;SDS011;27371;42.686;23.362;2022-09-20T19:39:37;4.30;;;3.15;;
41687;SDS011;27371;42.686;23.362;2022-09-20T19:44:36;6.70;;;3.30;;
41687;SDS011;27371;42.686;23.362;2022-09-20T19:52:14;6.18;;;4.13;;
41687;SDS011;27371;42.686;23.362;2022-09-20T19:54:39;7.50;;;4.90;;
41687;SDS011;27371;42.686;23.362;2022-09-20T19:57:06;7.60;;;4.65;;
41687;SDS011;27371;42.686;23.362;2022-09-20T19:59:33;8.25;;;4.82;;
41687;SDS011;27371;42.686;23.362;2022-09-20T20:01:59;7.85;;;3.92;;
41687;SDS011;27371;42.686;23.362;2022-09-20T20:04:24;11.75;;;3.90;;
41687;SDS011;27371;42.686;23.362;2022-09-20T20:06:53;9.60;;;4.13;;
41687;SDS011;27371;42.686;23.362;2022-09-20T20:24:46;7.32;;;3.83;;
41687;SDS011;27371;42.686;23.362;2022-09-20T20:27:12;7.72;;;3.28;;
41687;SDS011;27371;42.686;23.362;2022-09-20T20:29:37;5.47;;;3.20;;
41687;SDS011;27371;42.686;23.362;2022-09-20T20:32:03;6.07;;;3.60;;
41687;SDS011;27371;42.686;23.362;2022-09-20T20:34:28;8.82;;;3.83;;
41687;SDS011;27371;42.686;23.362;2022-09-20T20:36:54;5.57;;;3.90;;
41687;SDS011;27371;42.686;23.362;2022-09-20T20:39:27;5.82;;;3.60;;
41687;SDS011;27371;42.686;23.362;2022-09-20T20:41:53;11.90;;;3.78;;
41687;SDS011;27371;42.686;23.362;2022-09-20T20:44:18;8.45;;;3.83;;
41687;SDS011;27371;42.686;23.362;2022-09-20T20:46:48;8.57;;;3.42;;
41687;SDS011;27371;42.686;23.362;2022-09-20T20:49:14;5.32;;;3.42;;